sensor_id;sensor_type;location;lat;lon;timestamp;pressure;altitude;pressure_sealevel;temperature;humidity
58955;BME280;45815;52.334;5.024;2023-12-20T00:00:55;101572.38;;;7.21;100.00
58955;BME280;45815;52.334;5.024;2023-12-20T00:03:20;101572.47;;;7.22;100.00
58955;BME280;45815;52.334;5.024;2023-12-20T00:05:46;101571.63;;;7.23;100.00
58955;BME280;45815;52.334;5.024;2023-12-20T00:08:12;101568.97;;;7.22;100.00
58955;BME280;45815;52.334;5.024;2023-12-20T00:10:37;101560.25;;;7.21;100.00
58955;BME280;45815;52.334;5.024;2023-12-20T00:13:02;101552.22;;;7.16;100.00
58955;BME280;45815;52.334;5.024;2023-12-20T00:15:28;101548.69;;;7.16;100.00
58955;BME280;45815;52.334;5.024;2023-12-20T00:17:53;101559.97;;;7.15;100.00
58955;BME280;45815;52.334;5.024;2023-12-20T00:20:19;101563.53;;;7.17;100.00
58955;BME280;45815;52.334;5.024;2023-12-20T00:22:44;101558.25;;;7.15;100.00
58955;BME280;45815;52.334;5.024;2023-12-20T00:25:10;101559.28;;;7.19;100.00
58955;BME280;45815;52.334;5.024;2023-12-20T00:27:35;101562.69;;;7.18;100.00
58955;BME280;45815;52.334;5.024;2023-12-20T00:30:00;101567.91;;;7.18;100.00
58955;BME280;45815;52.334;5.024;2023-12-20T00:32:26;101564.34;;;7.16;100.00
58955;BME280;45815;52.334;5.024;2023-12-20T00:34:51;101571.50;;;7.20;100.00
58955;BME280;45815;52.334;5.024;2023-12-20T00:37:16;101566.41;;;7.23;100.00
58955;BME280;45815;52.334;5.024;2023-12-20T00:39:42;101570.81;;;7.24;100.00
58955;BME280;45815;52.334;5.024;2023-12-20T00:42:07;101558.44;;;7.20;100.00
58955;BME280;45815;52.334;5.024;2023-12-20T00:44:33;101561.06;;;7.20;100.00
58955;BME280;45815;52.334;5.024;2023-12-20T00:46:58;101561.19;;;7.23;100.00
58955;BME280;45815;52.334;5.024;2023-12-20T00:49:23;101562.69;;;7.18;100.00
58955;BME280;45815;52.334;5.024;2023-12-20T00:51:49;101566.00;;;7.14;100.00
58955;BME280;45815;52.334;5.024;2023-12-20T00:54:16;101560.78;;;7.14;100.00
58955;BME280;45815;52.334;5.024;2023-12-20T00:56:41;101566.97;;;7.16;100.00
58955;BME280;45815;52.334;5.024;2023-12-20T00:59:06;101567.91;;;7.18;100.00
58955;BME280;45815;52.334;5.024;2023-12-20T01:01:32;101567.66;;;7.12;100.00
58955;BME280;45815;52.334;5.024;2023-12-20T01:03:58;101550.97;;;7.08;100.00
58955;BME280;45815;52.334;5.024;2023-12-20T01:06:24;101557.28;;;7.13;100.00
58955;BME280;45815;52.334;5.024;2023-12-20T01:08:49;101542.16;;;7.06;100.00
58955;BME280;45815;52.334;5.024;2023-12-20T01:11:14;101568.00;;;7.19;100.00
58955;BME280;45815;52.334;5.024;2023-12-20T01:13:40;101566.16;;;7.17;100.00
58955;BME280;45815;52.334;5.024;2023-12-20T01:16:05;101563.59;;;7.18;100.00
58955;BME280;45815;52.334;5.024;2023-12-20T01:18:31;101559.28;;;7.19;100.00
58955;BME280;45815;52.334;5.024;2023-12-20T01:21:01;101561.06;;;7.20;100.00
58955;BME280;45815;52.334;5.024;2023-12-20T01:23:27;101562.84;;;7.21;100.00
58955;BME280;45815;52.334;5.024;2023-12-20T01:25:52;101559.28;;;7.19;100.00
58955;BME280;45815;52.334;5.024;2023-12-20T01:28:19;101553.22;;;7.20;100.00
58955;BME280;45815;52.334;5.024;2023-12-20T01:30:44;101548.97;;;7.22;100.00
58955;BME280;45815;52.334;5.024;2023-12-20T01:33:10;101558.66;;;7.25;100.00
58955;BME280;45815;52.334;5.024;2023-12-20T01:35:35;101553.50;;;7.26;100.00
58955;BME280;45815;52.334;5.024;2023-12-20T01:38:00;101554.31;;;7.25;100.00
58955;BME280;45815;52.334;5.024;2023-12-20T01:40:26;101545.66;;;7.26;100.00
58955;BME280;45815;52.334;5.024;2023-12-20T01:42:58;101543.06;;;7.26;100.00
58955;BME280;45815;52.334;5.024;2023-12-20T01:45:24;101544.03;;;7.28;100.00
58955;BME280;45815;52.334;5.024;2023-12-20T01:47:50;101548.53;;;7.32;100.00
58955;BME280;45815;52.334;5.024;2023-12-20T01:50:16;101549.44;;;7.33;100.00
58955;BME280;45815;52.334;5.024;2023-12-20T01:52:43;101542.63;;;7.36;100.00
58955;BME280;45815;52.334;5.024;2023-12-20T01:55:09;101532.19;;;7.36;100.00
58955;BME280;45815;52.334;5.024;2023-12-20T01:57:42;101540.22;;;7.41;100.00
58955;BME280;45815;52.334;5.024;2023-12-20T02:00:09;101552.31;;;7.39;100.00
58955;BME280;45815;52.334;5.024;2023-12-20T02:02:39;101551.34;;;7.37;100.00
58955;BME280;45815;52.334;5.024;2023-12-20T02:05:08;101554.88;;;7.37;100.00
58955;BME280;45815;52.334;5.024;2023-12-20T02:07:33;101549.97;;;7.45;100.00
58955;BME280;45815;52.334;5.024;2023-12-20T02:10:01;101558.00;;;7.50;100.00
58955;BME280;45815;52.334;5.024;2023-12-20T02:12:26;101543.28;;;7.52;100.00
58955;BME280;45815;52.334;5.024;2023-12-20T02:14:52;101539.84;;;7.53;100.00
58955;BME280;45815;52.334;5.024;2023-12-20T02:17:19;101533.91;;;7.57;100.00
58955;BME280;45815;52.334;5.024;2023-12-20T02:19:44;101529.38;;;7.53;100.00
58955;BME280;45815;52.334;5.024;2023-12-20T02:22:10;101530.44;;;7.56;100.00
58955;BME280;45815;52.334;5.024;2023-12-20T02:24:36;101527.84;;;7.58;100.00
58955;BME280;45815;52.334;5.024;2023-12-20T02:27:02;101530.34;;;7.55;100.00
58955;BME280;45815;52.334;5.024;2023-12-20T02:29:28;101537.53;;;7.60;100.00
58955;BME280;45815;52.334;5.024;2023-12-20T02:31:53;101521.66;;;7.56;100.00
58955;BME280;45815;52.334;5.024;2023-12-20T02:34:19;101523.28;;;7.52;100.00
58955;BME280;45815;52.334;5.024;2023-12-20T02:36:44;101525.19;;;7.56;100.00
58955;BME280;45815;52.334;5.024;2023-12-20T02:39:09;101521.63;;;7.54;100.00
58955;BME280;45815;52.334;5.024;2023-12-20T02:41:35;101518.19;;;7.55;100.00
58955;BME280;45815;52.334;5.024;2023-12-20T02:44:01;101500.78;;;7.56;100.00
58955;BME280;45815;52.334;5.024;2023-12-20T02:46:27;101511.28;;;7.57;100.00
58955;BME280;45815;52.334;5.024;2023-12-20T02:48:52;101504.53;;;7.63;100.00
58955;BME280;45815;52.334;5.024;2023-12-20T02:51:17;101507.22;;;7.64;100.00
58955;BME280;45815;52.334;5.024;2023-12-20T02:53:43;101507.41;;;7.69;100.00
58955;BME280;45815;52.334;5.024;2023-12-20T02:56:08;101503.16;;;7.71;100.00
58955;BME280;45815;52.334;5.024;2023-12-20T02:58:34;101491.66;;;7.67;100.00
58955;BME280;45815;52.334;5.024;2023-12-20T03:00:59;101490.91;;;7.70;100.00
58955;BME280;45815;52.334;5.024;2023-12-20T03:03:24;101483.13;;;7.71;100.00
58955;BME280;45815;52.334;5.024;2023-12-20T03:05:50;101493.59;;;7.71;100.00
58955;BME280;45815;52.334;5.024;2023-12-20T03:08:15;101487.66;;;7.75;100.00
58955;BME280;45815;52.334;5.024;2023-12-20T03:10:41;101492.81;;;7.74;100.00
58955;BME280;45815;52.334;5.024;2023-12-20T03:13:06;101479.69;;;7.72;100.00
58955;BME280;45815;52.334;5.024;2023-12-20T03:15:32;101474.34;;;7.69;100.00
58955;BME280;45815;52.334;5.024;2023-12-20T03:17:57;101472.69;;;7.71;100.00
58955;BME280;45815;52.334;5.024;2023-12-20T03:20:24;101482.06;;;7.66;100.00
58955;BME280;45815;52.334;5.024;2023-12-20T03:22:51;101472.38;;;7.64;100.00
58955;BME280;45815;52.334;5.024;2023-12-20T03:25:16;101474.16;;;7.65;100.00
58955;BME280;45815;52.334;5.024;2023-12-20T03:27:42;101478.94;;;7.54;100.00
58955;BME280;45815;52.334;5.024;2023-12-20T03:30:07;101477.16;;;7.53;100.00
58955;BME280;45815;52.334;5.024;2023-12-20T03:32:33;101478.03;;;7.53;100.00
58955;BME280;45815;52.334;5.024;2023-12-20T03:34:58;101485.69;;;7.49;100.00
58955;BME280;45815;52.334;5.024;2023-12-20T03:37:24;101491.75;;;7.48;100.00
58955;BME280;45815;52.334;5.024;2023-12-20T03:39:49;101494.34;;;7.48;100.00
58955;BME280;45815;52.334;5.024;2023-12-20T03:42:15;101487.28;;;7.45;100.00
58955;BME280;45815;52.334;5.024;2023-12-20T03:44:40;101480.34;;;7.46;100.00
58955;BME280;45815;52.334;5.024;2023-12-20T03:47:06;101491.66;;;7.46;100.00
58955;BME280;45815;52.334;5.024;2023-12-20T03:49:31;101484.91;;;7.51;100.00
58955;BME280;45815;52.334;5.024;2023-12-20T03:51:57;101493.31;;;7.44;100.00
58955;BME280;45815;52.334;5.024;2023-12-20T03:54:22;101484.03;;;7.51;100.00
58955;BME280;45815;52.334;5.024;2023-12-20T03:56:47;101488.66;;;7.58;100.00
58955;BME280;45815;52.334;5.024;2023-12-20T03:59:13;101479.88;;;7.56;100.00
58955;BME280;45815;52.334;5.024;2023-12-20T04:01:43;101468.34;;;7.51;100.00
58955;BME280;45815;52.334;5.024;2023-12-20T04:04:09;101471.81;;;7.50;100.00
58955;BME280;45815;52.334;5.024;2023-12-20T04:06:34;101467.78;;;7.58;100.00
58955;BME280;45815;52.334;5.024;2023-12-20T04:09:00;101465.94;;;7.55;100.00
58955;BME280;45815;52.334;5.024;2023-12-20T04:11:25;101466.97;;;7.59;100.00
58955;BME280;45815;52.334;5.024;2023-12-20T04:13:51;101459.94;;;7.58;100.00
58955;BME280;45815;52.334;5.024;2023-12-20T04:16:16;101456.13;;;7.50;100.00
58955;BME280;45815;52.334;5.024;2023-12-20T04:18:41;101454.72;;;7.58;100.00
58955;BME280;45815;52.334;5.024;2023-12-20T04:21:07;101455.56;;;7.57;100.00
58955;BME280;45815;52.334;5.024;2023-12-20T04:23:32;101442.38;;;7.54;100.00
58955;BME280;45815;52.334;5.024;2023-12-20T04:25:58;101454.53;;;7.53;100.00
58955;BME280;45815;52.334;5.024;2023-12-20T04:28:23;101464.16;;;7.54;100.00
58955;BME280;45815;52.334;5.024;2023-12-20T04:30:49;101462.72;;;7.63;100.00
58955;BME280;45815;52.334;5.024;2023-12-20T04:33:14;101466.22;;;7.63;100.00
58955;BME280;45815;52.334;5.024;2023-12-20T04:35:39;101460.31;;;7.67;100.00
58955;BME280;45815;52.334;5.024;2023-12-20T04:38:06;101450.75;;;7.68;100.00
58955;BME280;45815;52.334;5.024;2023-12-20T04:40:31;101441.22;;;7.68;100.00
58955;BME280;45815;52.334;5.024;2023-12-20T04:42:57;101453.44;;;7.69;100.00
58955;BME280;45815;52.334;5.024;2023-12-20T04:45:22;101430.63;;;7.65;100.00
58955;BME280;45815;52.334;5.024;2023-12-20T04:47:50;101430.75;;;7.68;100.00
58955;BME280;45815;52.334;5.024;2023-12-20T04:50:15;101438.59;;;7.68;100.00
58955;BME280;45815;52.334;5.024;2023-12-20T04:52:41;101436.69;;;7.64;100.00
58955;BME280;45815;52.334;5.024;2023-12-20T04:55:07;101435.97;;;7.68;100.00
58955;BME280;45815;52.334;5.024;2023-12-20T04:57:34;101436.09;;;7.71;100.00
58955;BME280;45815;52.334;5.024;2023-12-20T04:59:59;101447.44;;;7.72;100.00
58955;BME280;45815;52.334;5.024;2023-12-20T05:02:25;101450.13;;;7.73;100.00
58955;BME280;45815;52.334;5.024;2023-12-20T05:04:50;101445.09;;;7.78;100.00
58955;BME280;45815;52.334;5.024;2023-12-20T05:07:16;101456.34;;;7.77;100.00
58955;BME280;45815;52.334;5.024;2023-12-20T05:09:41;101444.00;;;7.73;100.00
58955;BME280;45815;52.334;5.024;2023-12-20T05:12:07;101435.31;;;7.74;100.00
58955;BME280;45815;52.334;5.024;2023-12-20T05:14:32;101439.91;;;7.79;100.00
58955;BME280;45815;52.334;5.024;2023-12-20T05:16:58;101451.38;;;7.83;100.00
58955;BME280;45815;52.334;5.024;2023-12-20T05:19:24;101458.38;;;7.84;100.00
58955;BME280;45815;52.334;5.024;2023-12-20T05:21:50;101435.63;;;7.81;100.00
58955;BME280;45815;52.334;5.024;2023-12-20T05:24:15;101451.31;;;7.81;100.00
58955;BME280;45815;52.334;5.024;2023-12-20T05:26:40;101447.03;;;7.83;100.00
58955;BME280;45815;52.334;5.024;2023-12-20T05:29:06;101447.53;;;7.75;100.00
58955;BME280;45815;52.334;5.024;2023-12-20T05:31:31;101444.50;;;7.85;100.00
58955;BME280;45815;52.334;5.024;2023-12-20T05:33:57;101453.41;;;7.90;100.00
58955;BME280;45815;52.334;5.024;2023-12-20T05:36:22;101448.47;;;7.98;100.00
58955;BME280;45815;52.334;5.024;2023-12-20T05:38:48;101439.63;;;7.94;100.00
58955;BME280;45815;52.334;5.024;2023-12-20T05:41:13;101437.91;;;7.95;100.00
58955;BME280;45815;52.334;5.024;2023-12-20T05:43:39;101452.75;;;7.96;100.00
58955;BME280;45815;52.334;5.024;2023-12-20T05:46:04;101444.34;;;8.03;100.00
58955;BME280;45815;52.334;5.024;2023-12-20T05:48:30;101445.06;;;8.00;100.00
58955;BME280;45815;52.334;5.024;2023-12-20T05:50:55;101446.22;;;8.07;100.00
58955;BME280;45815;52.334;5.024;2023-12-20T05:53:21;101446.09;;;8.04;100.00
58955;BME280;45815;52.334;5.024;2023-12-20T05:55:46;101454.78;;;8.03;100.00
58955;BME280;45815;52.334;5.024;2023-12-20T05:58:12;101446.00;;;8.01;100.00
58955;BME280;45815;52.334;5.024;2023-12-20T06:00:37;101442.63;;;8.05;100.00
58955;BME280;45815;52.334;5.024;2023-12-20T06:03:03;101440.03;;;8.05;100.00
58955;BME280;45815;52.334;5.024;2023-12-20T06:05:30;101444.56;;;8.09;100.00
58955;BME280;45815;52.334;5.024;2023-12-20T06:07:56;101431.59;;;8.12;100.00
58955;BME280;45815;52.334;5.024;2023-12-20T06:10:26;101423.63;;;8.09;100.00
58955;BME280;45815;52.334;5.024;2023-12-20T06:12:52;101430.00;;;8.16;100.00
58955;BME280;45815;52.334;5.024;2023-12-20T06:15:17;101426.97;;;8.05;100.00
58955;BME280;45815;52.334;5.024;2023-12-20T06:17:43;101407.88;;;8.08;100.00
58955;BME280;45815;52.334;5.024;2023-12-20T06:20:09;101426.34;;;8.12;100.00
58955;BME280;45815;52.334;5.024;2023-12-20T06:22:35;101424.66;;;8.13;100.00
58955;BME280;45815;52.334;5.024;2023-12-20T06:25:02;101422.09;;;8.14;100.00
58955;BME280;45815;52.334;5.024;2023-12-20T06:27:28;101430.78;;;8.13;100.00
58955;BME280;45815;52.334;5.024;2023-12-20T06:29:54;101421.88;;;8.08;100.00
58955;BME280;45815;52.334;5.024;2023-12-20T06:32:19;101430.00;;;8.16;100.00
58955;BME280;45815;52.334;5.024;2023-12-20T06:34:44;101420.31;;;8.13;100.00
58955;BME280;45815;52.334;5.024;2023-12-20T06:37:10;101429.66;;;8.07;100.00
58955;BME280;45815;52.334;5.024;2023-12-20T06:39:35;101422.75;;;8.09;100.00
58955;BME280;45815;52.334;5.024;2023-12-20T06:42:00;101432.19;;;8.05;100.00
58955;BME280;45815;52.334;5.024;2023-12-20T06:44:26;101425.47;;;8.12;100.00
58955;BME280;45815;52.334;5.024;2023-12-20T06:46:51;101424.53;;;8.10;100.00
58955;BME280;45815;52.334;5.024;2023-12-20T06:49:17;101428.88;;;8.09;100.00
58955;BME280;45815;52.334;5.024;2023-12-20T06:51:43;101436.00;;;8.13;100.00
58955;BME280;45815;52.334;5.024;2023-12-20T06:54:09;101428.16;;;8.13;100.00
58955;BME280;45815;52.334;5.024;2023-12-20T06:56:34;101431.38;;;8.06;100.00
58955;BME280;45815;52.334;5.024;2023-12-20T06:59:00;101422.94;;;8.13;100.00
58955;BME280;45815;52.334;5.024;2023-12-20T07:01:25;101416.63;;;8.08;100.00
58955;BME280;45815;52.334;5.024;2023-12-20T07:03:50;101417.81;;;8.16;100.00
58955;BME280;45815;52.334;5.024;2023-12-20T07:06:16;101409.00;;;8.14;100.00
58955;BME280;45815;52.334;5.024;2023-12-20T07:08:42;101416.31;;;8.23;100.00
58955;BME280;45815;52.334;5.024;2023-12-20T07:11:07;101421.38;;;8.18;100.00
58955;BME280;45815;52.334;5.024;2023-12-20T07:13:33;101402.47;;;8.25;100.00
58955;BME280;45815;52.334;5.024;2023-12-20T07:15:58;101409.94;;;8.15;100.00
58955;BME280;45815;52.334;5.024;2023-12-20T07:18:24;101377.44;;;8.08;100.00
58955;BME280;45815;52.334;5.024;2023-12-20T07:20:49;101396.19;;;8.20;100.00
58955;BME280;45815;52.334;5.024;2023-12-20T07:23:15;101404.25;;;8.27;100.00
58955;BME280;45815;52.334;5.024;2023-12-20T07:25:40;101399.03;;;8.27;100.00
58955;BME280;45815;52.334;5.024;2023-12-20T07:28:06;101398.19;;;8.28;100.00
58955;BME280;45815;52.334;5.024;2023-12-20T07:30:31;101395.47;;;8.24;100.00
58955;BME280;45815;52.334;5.024;2023-12-20T07:32:56;101396.59;;;8.31;100.00
58955;BME280;45815;52.334;5.024;2023-12-20T07:35:23;101394.97;;;8.35;100.00
58955;BME280;45815;52.334;5.024;2023-12-20T07:37:49;101403.41;;;8.28;100.00
58955;BME280;45815;52.334;5.024;2023-12-20T07:40:14;101397.47;;;8.32;100.00
58955;BME280;45815;52.334;5.024;2023-12-20T07:42:42;101419.47;;;8.37;100.00
58955;BME280;45815;52.334;5.024;2023-12-20T07:45:07;101431.84;;;8.41;100.00
58955;BME280;45815;52.334;5.024;2023-12-20T07:47:34;101429.28;;;8.42;100.00
58955;BME280;45815;52.334;5.024;2023-12-20T07:49:59;101433.38;;;8.36;100.00
58955;BME280;45815;52.334;5.024;2023-12-20T07:52:25;101435.16;;;8.37;100.00
58955;BME280;45815;52.334;5.024;2023-12-20T07:54:51;101436.03;;;8.37;100.00
58955;BME280;45815;52.334;5.024;2023-12-20T07:57:16;101440.22;;;8.32;100.00
58955;BME280;45815;52.334;5.024;2023-12-20T07:59:42;101443.84;;;8.36;100.00
58955;BME280;45815;52.334;5.024;2023-12-20T08:02:09;101437.84;;;8.38;100.00
58955;BME280;45815;52.334;5.024;2023-12-20T08:04:35;101434.13;;;8.33;100.00
58955;BME280;45815;52.334;5.024;2023-12-20T08:07:00;101442.16;;;8.38;100.00
58955;BME280;45815;52.334;5.024;2023-12-20T08:09:25;101438.63;;;8.36;100.00
58955;BME280;45815;52.334;5.024;2023-12-20T08:11:51;101429.13;;;8.39;100.00
58955;BME280;45815;52.334;5.024;2023-12-20T08:14:16;101426.72;;;8.44;100.00
58955;BME280;45815;52.334;5.024;2023-12-20T08:16:42;101423.16;;;8.42;100.00
58955;BME280;45815;52.334;5.024;2023-12-20T08:19:08;101425.16;;;8.49;100.00
58955;BME280;45815;52.334;5.024;2023-12-20T08:21:34;101422.69;;;8.52;100.00
58955;BME280;45815;52.334;5.024;2023-12-20T08:23:59;101420.16;;;8.55;100.00
58955;BME280;45815;52.334;5.024;2023-12-20T08:26:26;101423.75;;;8.57;100.00
58955;BME280;45815;52.334;5.024;2023-12-20T08:28:51;101408.13;;;8.60;100.00
58955;BME280;45815;52.334;5.024;2023-12-20T08:31:17;101409.91;;;8.61;100.00
58955;BME280;45815;52.334;5.024;2023-12-20T08:33:47;101419.47;;;8.59;100.00
58955;BME280;45815;52.334;5.024;2023-12-20T08:36:13;101431.19;;;8.71;100.00
58955;BME280;45815;52.334;5.024;2023-12-20T08:38:39;101417.91;;;8.64;100.00
58955;BME280;45815;52.334;5.024;2023-12-20T08:41:05;101424.72;;;8.61;100.00
58955;BME280;45815;52.334;5.024;2023-12-20T08:43:31;101419.63;;;8.64;100.00
58955;BME280;45815;52.334;5.024;2023-12-20T08:45:57;101415.13;;;8.61;100.00
58955;BME280;45815;52.334;5.024;2023-12-20T08:48:23;101437.31;;;8.71;100.00
58955;BME280;45815;52.334;5.024;2023-12-20T08:50:48;101439.78;;;8.66;100.00
58955;BME280;45815;52.334;5.024;2023-12-20T08:53:15;101428.53;;;8.69;100.00
58955;BME280;45815;52.334;5.024;2023-12-20T08:55:42;101425.91;;;8.69;100.00
58955;BME280;45815;52.334;5.024;2023-12-20T08:58:07;101424.19;;;8.70;100.00
58955;BME280;45815;52.334;5.024;2023-12-20T09:00:34;101424.28;;;8.73;100.00
58955;BME280;45815;52.334;5.024;2023-12-20T09:02:59;101421.47;;;8.66;100.00
58955;BME280;45815;52.334;5.024;2023-12-20T09:05:25;101429.25;;;8.65;100.00
58955;BME280;45815;52.334;5.024;2023-12-20T09:07:50;101415.47;;;8.71;100.00
58955;BME280;45815;52.334;5.024;2023-12-20T09:10:16;101408.75;;;8.77;100.00
58955;BME280;45815;52.334;5.024;2023-12-20T09:12:41;101410.47;;;8.77;100.00
58955;BME280;45815;52.334;5.024;2023-12-20T09:15:08;101408.81;;;8.79;100.00
58955;BME280;45815;52.334;5.024;2023-12-20T09:17:33;101412.56;;;8.87;100.00
58955;BME280;45815;52.334;5.024;2023-12-20T09:19:58;101406.91;;;8.75;100.00
58955;BME280;45815;52.334;5.024;2023-12-20T09:22:25;101420.31;;;8.84;100.00
58955;BME280;45815;52.334;5.024;2023-12-20T09:24:50;101421.03;;;8.80;100.00
58955;BME280;45815;52.334;5.024;2023-12-20T09:27:16;101423.78;;;8.83;100.00
58955;BME280;45815;52.334;5.024;2023-12-20T09:29:41;101424.75;;;8.85;100.00
58955;BME280;45815;52.334;5.024;2023-12-20T09:32:07;101428.28;;;8.87;100.00
58955;BME280;45815;52.334;5.024;2023-12-20T09:34:33;101421.16;;;8.83;100.00
58955;BME280;45815;52.334;5.024;2023-12-20T09:36:58;101417.81;;;8.87;100.00
58955;BME280;45815;52.334;5.024;2023-12-20T09:39:24;101422.94;;;8.84;100.00
58955;BME280;45815;52.334;5.024;2023-12-20T09:44:22;101414.38;;;8.88;100.00
58955;BME280;45815;52.334;5.024;2023-12-20T09:46:49;101419.59;;;8.88;100.00
58955;BME280;45815;52.334;5.024;2023-12-20T09:49:18;101425.81;;;8.92;100.00
58955;BME280;45815;52.334;5.024;2023-12-20T09:51:46;101438.66;;;8.84;100.00
58955;BME280;45815;52.334;5.024;2023-12-20T09:54:14;101440.63;;;8.91;100.00
58955;BME280;45815;52.334;5.024;2023-12-20T09:56:39;101444.22;;;8.93;100.00
58955;BME280;45815;52.334;5.024;2023-12-20T09:59:05;101442.63;;;8.98;100.00
58955;BME280;45815;52.334;5.024;2023-12-20T10:01:31;101432.16;;;8.98;100.00
58955;BME280;45815;52.334;5.024;2023-12-20T10:03:58;101446.19;;;9.00;100.00
58955;BME280;45815;52.334;5.024;2023-12-20T10:06:25;101448.00;;;9.01;100.00
58955;BME280;45815;52.334;5.024;2023-12-20T10:08:50;101445.47;;;9.04;100.00
58955;BME280;45815;52.334;5.024;2023-12-20T10:11:16;101428.19;;;9.09;100.00
58955;BME280;45815;52.334;5.024;2023-12-20T10:13:42;101430.31;;;8.96;100.00
58955;BME280;45815;52.334;5.024;2023-12-20T10:16:08;101429.78;;;9.04;100.00
58955;BME280;45815;52.334;5.024;2023-12-20T10:18:33;101441.28;;;9.09;100.00
58955;BME280;45815;52.334;5.024;2023-12-20T10:21:00;101437.94;;;9.14;100.00
58955;BME280;45815;52.334;5.024;2023-12-20T10:23:25;101435.56;;;9.21;100.00
58955;BME280;45815;52.334;5.024;2023-12-20T10:25:58;101435.81;;;9.27;100.00
58955;BME280;45815;52.334;5.024;2023-12-20T10:28:24;101432.47;;;9.33;100.00
58955;BME280;45815;52.334;5.024;2023-12-20T10:30:53;101428.28;;;9.38;100.00
58955;BME280;45815;52.334;5.024;2023-12-20T10:33:26;101428.44;;;9.43;100.00
58955;BME280;45815;52.334;5.024;2023-12-20T10:35:52;101433.94;;;9.50;100.00
58955;BME280;45815;52.334;5.024;2023-12-20T10:38:17;101433.78;;;9.73;100.00
58955;BME280;45815;52.334;5.024;2023-12-20T10:40:45;101417.31;;;9.77;100.00
58955;BME280;45815;52.334;5.024;2023-12-20T10:43:11;101401.69;;;9.80;100.00
58955;BME280;45815;52.334;5.024;2023-12-20T10:45:37;101413.16;;;9.57;100.00
58955;BME280;45815;52.334;5.024;2023-12-20T10:48:03;101424.44;;;9.81;100.00
58955;BME280;45815;52.334;5.024;2023-12-20T10:50:29;101408.09;;;9.90;100.00
58955;BME280;45815;52.334;5.024;2023-12-20T10:52:55;101394.09;;;9.89;100.00
58955;BME280;45815;52.334;5.024;2023-12-20T10:55:22;101391.84;;;10.02;100.00
58955;BME280;45815;52.334;5.024;2023-12-20T10:57:50;101392.84;;;10.05;100.00
58955;BME280;45815;52.334;5.024;2023-12-20T11:00:17;101395.41;;;10.04;100.00
58955;BME280;45815;52.334;5.024;2023-12-20T11:02:43;101398.72;;;10.27;100.00
58955;BME280;45815;52.334;5.024;2023-12-20T11:05:33;101392.03;;;10.08;100.00
58955;BME280;45815;52.334;5.024;2023-12-20T11:10:59;101388.84;;;9.89;100.00
58955;BME280;45815;52.334;5.024;2023-12-20T11:13:32;101389.50;;;9.82;100.00
58955;BME280;45815;52.334;5.024;2023-12-20T11:16:00;101384.97;;;9.77;100.00
58955;BME280;45815;52.334;5.024;2023-12-20T11:18:31;101388.94;;;9.64;100.00
58955;BME280;45815;52.334;5.024;2023-12-20T11:21:01;101383.53;;;9.59;100.00
58955;BME280;45815;52.334;5.024;2023-12-20T11:23:30;101375.06;;;9.39;100.00
58955;BME280;45815;52.334;5.024;2023-12-20T11:25:57;101396.78;;;9.62;100.00
58955;BME280;45815;52.334;5.024;2023-12-20T11:28:26;101389.28;;;9.47;100.00
58955;BME280;45815;52.334;5.024;2023-12-20T11:33:36;101386.72;;;9.49;100.00
58955;BME280;45815;52.334;5.024;2023-12-20T11:36:01;101366.25;;;9.37;100.00
58955;BME280;45815;52.334;5.024;2023-12-20T11:38:36;101376.31;;;9.50;100.00
58955;BME280;45815;52.334;5.024;2023-12-20T11:41:05;101368.44;;;9.50;100.00
58955;BME280;45815;52.334;5.024;2023-12-20T11:43:38;101360.38;;;9.44;100.00
58955;BME280;45815;52.334;5.024;2023-12-20T11:48:31;101362.25;;;9.48;100.00
58955;BME280;45815;52.334;5.024;2023-12-20T11:50:57;101365.53;;;9.41;100.00
58955;BME280;45815;52.334;5.024;2023-12-20T11:53:22;101364.03;;;9.49;100.00
58955;BME280;45815;52.334;5.024;2023-12-20T11:55:51;101360.47;;;9.47;100.00
58955;BME280;45815;52.334;5.024;2023-12-20T11:58:16;101362.09;;;9.44;100.00
58955;BME280;45815;52.334;5.024;2023-12-20T12:00:42;101363.94;;;9.46;100.00
58955;BME280;45815;52.334;5.024;2023-12-20T12:03:14;101369.25;;;9.49;100.00
58955;BME280;45815;52.334;5.024;2023-12-20T12:05:40;101370.94;;;9.47;100.00
58955;BME280;45815;52.334;5.024;2023-12-20T12:08:05;101370.78;;;9.43;100.00
58955;BME280;45815;52.334;5.024;2023-12-20T12:10:31;101366.56;;;9.46;100.00
58955;BME280;45815;52.334;5.024;2023-12-20T12:12:56;101359.63;;;9.48;100.00
58955;BME280;45815;52.334;5.024;2023-12-20T12:15:22;101352.72;;;9.50;100.00
58955;BME280;45815;52.334;5.024;2023-12-20T12:17:54;101356.81;;;9.42;100.00
58955;BME280;45815;52.334;5.024;2023-12-20T12:20:21;101336.59;;;9.38;100.00
58955;BME280;45815;52.334;5.024;2023-12-20T12:23:00;101330.31;;;9.33;100.00
58955;BME280;45815;52.334;5.024;2023-12-20T12:25:26;101336.06;;;9.48;100.00
58955;BME280;45815;52.334;5.024;2023-12-20T12:27:52;101323.59;;;9.41;100.00
58955;BME280;45815;52.334;5.024;2023-12-20T12:30:17;101323.78;;;9.47;100.00
58955;BME280;45815;52.334;5.024;2023-12-20T12:32:47;101315.88;;;9.46;100.00
58955;BME280;45815;52.334;5.024;2023-12-20T12:35:13;101323.69;;;9.44;100.00
58955;BME280;45815;52.334;5.024;2023-12-20T12:37:40;101327.25;;;9.46;100.00
58955;BME280;45815;52.334;5.024;2023-12-20T12:40:10;101326.50;;;9.50;100.00
58955;BME280;45815;52.334;5.024;2023-12-20T12:42:36;101318.72;;;9.54;100.00
58955;BME280;45815;52.334;5.024;2023-12-20T12:45:02;101326.63;;;9.55;100.00
58955;BME280;45815;52.334;5.024;2023-12-20T12:47:28;101325.84;;;9.58;100.00
58955;BME280;45815;52.334;5.024;2023-12-20T12:49:53;101320.69;;;9.61;100.00
58955;BME280;45815;52.334;5.024;2023-12-20T12:52:19;101308.41;;;9.60;100.00
58955;BME280;45815;52.334;5.024;2023-12-20T12:54:45;101312.63;;;9.53;100.00